EPWR

Copernicus Wrocław Airport

Wrocław, Poland

TAF EPWR 260530Z 2606/2706 VRB02KT CAVOK BECMG 2607/2609 04010KT BECMG 2619/2621 27005KT

Issued Valid From Valid To
Mar-26 @ 05:30 UTC
(2 hours ago)
Mar-26 @ 06:00 UTC
(an hour ago)
Mar-27 @ 06:00 UTC
(in 23 hours)
Expired Click to View Mar-26 @ 06:00 - Mar-26 @ 07:00
Wind Visibility Clouds Conditions
Variable at 2 knots 10 km or more
  • No significant clouds
Becoming Mar-26 @ 07:00 - Mar-26 @ 19:00
Wind Visibility Clouds Conditions
40° at 10 knots 10 km or more
  • No significant clouds
Becoming Mar-26 @ 19:00 - Mar-27 @ 06:00
Wind Visibility Clouds Conditions
270° at 5 knots 10 km or more
  • No significant clouds
Issued Mar-26 @ 05:30 UTC
(2 hours ago)
Valid From Mar-26 @ 06:00 UTC
(an hour ago)
Valid To Mar-27 @ 06:00 UTC
(in 23 hours)
Mar-26 @ 06:00 - Mar-26 @ 07:00
Wind Visibility
Variable at 2 knots 10 km or more
Clouds Conditions
  • No significant clouds
Becoming Mar-26 @ 07:00 - Mar-26 @ 19:00
Wind Visibility
40° at 10 knots 10 km or more
Clouds Conditions
  • No significant clouds
Becoming Mar-26 @ 19:00 - Mar-27 @ 06:00
Wind Visibility
270° at 5 knots 10 km or more
Clouds Conditions
  • No significant clouds